sensor_id;sensor_type;location;lat;lon;timestamp;pressure;altitude;pressure_sealevel;temperature;humidity
35307;BME280;21420;52.196;21.416;2024-01-27T00:00:16;99938.79;;;1.43;74.90
35307;BME280;21420;52.196;21.416;2024-01-27T00:02:43;99938.35;;;1.49;74.79
35307;BME280;21420;52.196;21.416;2024-01-27T00:05:10;99941.34;;;1.53;74.83
35307;BME280;21420;52.196;21.416;2024-01-27T00:07:37;99946.58;;;1.57;74.82
35307;BME280;21420;52.196;21.416;2024-01-27T00:10:05;99954.02;;;1.58;74.82
35307;BME280;21420;52.196;21.416;2024-01-27T00:12:32;99953.98;;;1.62;74.82
35307;BME280;21420;52.196;21.416;2024-01-27T00:14:58;99954.94;;;1.64;74.92
35307;BME280;21420;52.196;21.416;2024-01-27T00:17:25;99961.97;;;1.66;74.99
35307;BME280;21420;52.196;21.416;2024-01-27T00:19:54;99962.21;;;1.68;74.96
35307;BME280;21420;52.196;21.416;2024-01-27T00:22:21;99959.17;;;1.71;75.07
35307;BME280;21420;52.196;21.416;2024-01-27T00:24:47;99962.11;;;1.78;75.08
35307;BME280;21420;52.196;21.416;2024-01-27T00:27:14;99962.86;;;1.88;75.23
35307;BME280;21420;52.196;21.416;2024-01-27T00:29:41;99961.23;;;2.03;75.32
35307;BME280;21420;52.196;21.416;2024-01-27T00:32:08;99966.94;;;2.17;75.49
35307;BME280;21420;52.196;21.416;2024-01-27T00:34:34;99970.86;;;2.28;75.51
35307;BME280;21420;52.196;21.416;2024-01-27T00:37:01;99978.31;;;2.36;75.43
35307;BME280;21420;52.196;21.416;2024-01-27T00:39:28;99979.86;;;2.45;75.44
35307;BME280;21420;52.196;21.416;2024-01-27T00:41:55;99987.02;;;2.52;75.45
35307;BME280;21420;52.196;21.416;2024-01-27T00:44:22;99987.20;;;2.62;75.53
35307;BME280;21420;52.196;21.416;2024-01-27T00:46:49;99988.39;;;2.73;75.53
35307;BME280;21420;52.196;21.416;2024-01-27T00:49:15;99996.27;;;2.82;75.58
35307;BME280;21420;52.196;21.416;2024-01-27T00:51:42;99989.83;;;2.90;75.52
35307;BME280;21420;52.196;21.416;2024-01-27T00:54:09;99987.23;;;2.99;75.57
35307;BME280;21420;52.196;21.416;2024-01-27T00:56:35;99996.49;;;3.06;75.53
35307;BME280;21420;52.196;21.416;2024-01-27T00:59:02;100002.53;;;3.15;75.57
35307;BME280;21420;52.196;21.416;2024-01-27T01:01:29;100009.48;;;3.20;75.53
35307;BME280;21420;52.196;21.416;2024-01-27T01:03:55;100009.66;;;3.23;75.46
35307;BME280;21420;52.196;21.416;2024-01-27T01:06:23;100017.05;;;3.24;75.44
35307;BME280;21420;52.196;21.416;2024-01-27T01:08:50;100022.22;;;3.26;75.45
35307;BME280;21420;52.196;21.416;2024-01-27T01:11:16;100015.83;;;3.26;75.38
35307;BME280;21420;52.196;21.416;2024-01-27T01:13:43;100017.85;;;3.28;75.31
35307;BME280;21420;52.196;21.416;2024-01-27T01:16:10;100028.69;;;3.33;75.43
35307;BME280;21420;52.196;21.416;2024-01-27T01:18:36;100038.09;;;3.35;75.39
35307;BME280;21420;52.196;21.416;2024-01-27T01:21:03;100033.91;;;3.33;75.35
35307;BME280;21420;52.196;21.416;2024-01-27T01:23:30;100037.70;;;3.35;75.33
35307;BME280;21420;52.196;21.416;2024-01-27T01:25:57;100036.52;;;3.35;75.32
35307;BME280;21420;52.196;21.416;2024-01-27T01:28:23;100036.63;;;3.35;75.35
35307;BME280;21420;52.196;21.416;2024-01-27T01:30:50;100041.23;;;3.36;75.34
35307;BME280;21420;52.196;21.416;2024-01-27T01:33:17;100051.91;;;3.33;75.33
35307;BME280;21420;52.196;21.416;2024-01-27T01:35:44;100060.41;;;3.30;75.26
35307;BME280;21420;52.196;21.416;2024-01-27T01:38:11;100054.43;;;3.29;75.27
35307;BME280;21420;52.196;21.416;2024-01-27T01:40:37;100054.67;;;3.31;75.28
35307;BME280;21420;52.196;21.416;2024-01-27T01:43:09;100060.08;;;3.30;75.39
35307;BME280;21420;52.196;21.416;2024-01-27T01:45:37;100067.42;;;3.32;75.45
35307;BME280;21420;52.196;21.416;2024-01-27T01:48:05;100065.99;;;3.33;75.52
35307;BME280;21420;52.196;21.416;2024-01-27T01:50:32;100066.45;;;3.36;75.55
35307;BME280;21420;52.196;21.416;2024-01-27T01:53:00;100073.95;;;3.44;75.64
35307;BME280;21420;52.196;21.416;2024-01-27T01:55:27;100086.39;;;3.48;75.65
35307;BME280;21420;52.196;21.416;2024-01-27T01:57:54;100090.73;;;3.51;75.56
35307;BME280;21420;52.196;21.416;2024-01-27T02:00:21;100090.61;;;3.52;75.54
35307;BME280;21420;52.196;21.416;2024-01-27T02:02:48;100095.98;;;3.51;75.57
35307;BME280;21420;52.196;21.416;2024-01-27T02:05:15;100097.41;;;3.49;75.52
35307;BME280;21420;52.196;21.416;2024-01-27T02:07:41;100098.48;;;3.50;75.54
35307;BME280;21420;52.196;21.416;2024-01-27T02:10:13;100103.64;;;3.53;75.60
35307;BME280;21420;52.196;21.416;2024-01-27T02:12:41;100100.05;;;3.53;75.59
35307;BME280;21420;52.196;21.416;2024-01-27T02:15:12;100103.38;;;3.56;75.61
35307;BME280;21420;52.196;21.416;2024-01-27T02:17:40;100104.38;;;3.57;75.63
35307;BME280;21420;52.196;21.416;2024-01-27T02:20:08;100113.86;;;3.61;75.66
35307;BME280;21420;52.196;21.416;2024-01-27T02:22:35;100112.02;;;3.65;75.57
35307;BME280;21420;52.196;21.416;2024-01-27T02:25:03;100120.60;;;3.66;75.68
35307;BME280;21420;52.196;21.416;2024-01-27T02:27:30;100123.52;;;3.66;75.62
35307;BME280;21420;52.196;21.416;2024-01-27T02:29:57;100124.37;;;3.67;75.69
35307;BME280;21420;52.196;21.416;2024-01-27T02:32:23;100123.06;;;3.67;75.66
35307;BME280;21420;52.196;21.416;2024-01-27T02:34:50;100129.40;;;3.71;75.72
35307;BME280;21420;52.196;21.416;2024-01-27T02:37:17;100137.38;;;3.73;75.67
35307;BME280;21420;52.196;21.416;2024-01-27T02:39:44;100142.09;;;3.73;75.65
35307;BME280;21420;52.196;21.416;2024-01-27T02:42:11;100139.83;;;3.72;75.57
35307;BME280;21420;52.196;21.416;2024-01-27T02:44:38;100140.19;;;3.73;75.59
35307;BME280;21420;52.196;21.416;2024-01-27T02:47:04;100140.11;;;3.75;75.63
35307;BME280;21420;52.196;21.416;2024-01-27T02:49:31;100141.20;;;3.78;75.73
35307;BME280;21420;52.196;21.416;2024-01-27T02:51:58;100149.41;;;3.80;75.63
35307;BME280;21420;52.196;21.416;2024-01-27T02:54:26;100155.13;;;3.78;75.48
35307;BME280;21420;52.196;21.416;2024-01-27T02:56:54;100152.38;;;3.77;75.56
35307;BME280;21420;52.196;21.416;2024-01-27T02:59:20;100159.45;;;3.78;75.55
35307;BME280;21420;52.196;21.416;2024-01-27T03:01:47;100160.81;;;3.78;75.56
35307;BME280;21420;52.196;21.416;2024-01-27T03:04:14;100170.25;;;3.77;75.41
35307;BME280;21420;52.196;21.416;2024-01-27T03:06:41;100166.02;;;3.75;75.44
35307;BME280;21420;52.196;21.416;2024-01-27T03:09:08;100172.52;;;3.72;75.40
35307;BME280;21420;52.196;21.416;2024-01-27T03:11:34;100169.92;;;3.70;75.47
35307;BME280;21420;52.196;21.416;2024-01-27T03:14:01;100168.48;;;3.71;75.46
35307;BME280;21420;52.196;21.416;2024-01-27T03:16:55;100179.21;;;3.75;75.56
35307;BME280;21420;52.196;21.416;2024-01-27T03:19:21;100177.83;;;3.74;75.50
35307;BME280;21420;52.196;21.416;2024-01-27T03:21:48;100171.80;;;3.78;75.61
35307;BME280;21420;52.196;21.416;2024-01-27T03:24:15;100179.08;;;3.84;75.68
35307;BME280;21420;52.196;21.416;2024-01-27T03:26:42;100175.44;;;3.85;75.53
35307;BME280;21420;52.196;21.416;2024-01-27T03:29:08;100173.36;;;3.83;75.37
35307;BME280;21420;52.196;21.416;2024-01-27T03:31:35;100185.61;;;3.79;75.30
35307;BME280;21420;52.196;21.416;2024-01-27T03:34:02;100189.08;;;3.75;75.36
35307;BME280;21420;52.196;21.416;2024-01-27T03:36:30;100186.67;;;3.72;75.32
35307;BME280;21420;52.196;21.416;2024-01-27T03:38:58;100182.75;;;3.74;75.42
35307;BME280;21420;52.196;21.416;2024-01-27T03:41:25;100191.56;;;3.79;75.47
35307;BME280;21420;52.196;21.416;2024-01-27T03:43:52;100189.83;;;3.80;75.32
35307;BME280;21420;52.196;21.416;2024-01-27T03:46:18;100187.41;;;3.77;75.31
35307;BME280;21420;52.196;21.416;2024-01-27T03:48:45;100182.34;;;3.73;75.27
35307;BME280;21420;52.196;21.416;2024-01-27T03:51:12;100186.26;;;3.72;75.30
35307;BME280;21420;52.196;21.416;2024-01-27T03:53:39;100185.79;;;3.74;75.42
35307;BME280;21420;52.196;21.416;2024-01-27T03:56:06;100198.48;;;3.73;75.38
35307;BME280;21420;52.196;21.416;2024-01-27T03:58:32;100203.95;;;3.73;75.36
35307;BME280;21420;52.196;21.416;2024-01-27T04:01:00;100203.45;;;3.73;75.37
35307;BME280;21420;52.196;21.416;2024-01-27T04:03:27;100204.34;;;3.73;75.33
35307;BME280;21420;52.196;21.416;2024-01-27T04:05:54;100201.09;;;3.71;75.26
35307;BME280;21420;52.196;21.416;2024-01-27T04:08:21;100205.37;;;3.72;75.32
35307;BME280;21420;52.196;21.416;2024-01-27T04:10:48;100207.91;;;3.72;75.31
35307;BME280;21420;52.196;21.416;2024-01-27T04:13:14;100211.23;;;3.71;75.40
35307;BME280;21420;52.196;21.416;2024-01-27T04:15:41;100212.05;;;3.71;75.30
35307;BME280;21420;52.196;21.416;2024-01-27T04:18:08;100211.28;;;3.71;75.32
35307;BME280;21420;52.196;21.416;2024-01-27T04:20:36;100211.44;;;3.71;75.36
35307;BME280;21420;52.196;21.416;2024-01-27T04:23:03;100211.55;;;3.72;75.35
35307;BME280;21420;52.196;21.416;2024-01-27T04:25:30;100218.98;;;3.72;75.35
35307;BME280;21420;52.196;21.416;2024-01-27T04:27:56;100218.26;;;3.72;75.30
35307;BME280;21420;52.196;21.416;2024-01-27T04:30:23;100224.33;;;3.72;75.24
35307;BME280;21420;52.196;21.416;2024-01-27T04:32:50;100224.89;;;3.71;75.25
35307;BME280;21420;52.196;21.416;2024-01-27T04:35:18;100240.39;;;3.70;75.31
35307;BME280;21420;52.196;21.416;2024-01-27T04:37:45;100246.16;;;3.68;75.24
35307;BME280;21420;52.196;21.416;2024-01-27T04:40:12;100246.01;;;3.67;75.25
35307;BME280;21420;52.196;21.416;2024-01-27T04:42:39;100242.47;;;3.65;75.23
35307;BME280;21420;52.196;21.416;2024-01-27T04:45:07;100244.40;;;3.62;75.18
35307;BME280;21420;52.196;21.416;2024-01-27T04:47:34;100248.47;;;3.62;75.24
35307;BME280;21420;52.196;21.416;2024-01-27T04:50:01;100252.80;;;3.62;75.30
35307;BME280;21420;52.196;21.416;2024-01-27T04:52:28;100256.95;;;3.64;75.37
35307;BME280;21420;52.196;21.416;2024-01-27T04:54:54;100259.67;;;3.63;75.32
35307;BME280;21420;52.196;21.416;2024-01-27T04:57:21;100262.08;;;3.62;75.25
35307;BME280;21420;52.196;21.416;2024-01-27T04:59:48;100262.05;;;3.60;75.18
35307;BME280;21420;52.196;21.416;2024-01-27T05:02:15;100268.14;;;3.57;75.19
35307;BME280;21420;52.196;21.416;2024-01-27T05:04:41;100269.30;;;3.54;75.16
35307;BME280;21420;52.196;21.416;2024-01-27T05:07:08;100266.31;;;3.52;75.24
35307;BME280;21420;52.196;21.416;2024-01-27T05:09:35;100266.96;;;3.52;75.13
35307;BME280;21420;52.196;21.416;2024-01-27T05:12:02;100270.71;;;3.51;75.09
35307;BME280;21420;52.196;21.416;2024-01-27T05:14:29;100267.11;;;3.48;75.06
35307;BME280;21420;52.196;21.416;2024-01-27T05:16:56;100273.11;;;3.46;75.19
35307;BME280;21420;52.196;21.416;2024-01-27T05:19:23;100271.55;;;3.45;75.16
35307;BME280;21420;52.196;21.416;2024-01-27T05:21:50;100275.03;;;3.44;75.18
35307;BME280;21420;52.196;21.416;2024-01-27T05:24:16;100269.04;;;3.43;75.14
35307;BME280;21420;52.196;21.416;2024-01-27T05:26:43;100272.36;;;3.41;75.11
35307;BME280;21420;52.196;21.416;2024-01-27T05:29:10;100269.75;;;3.38;75.14
35307;BME280;21420;52.196;21.416;2024-01-27T05:31:36;100270.31;;;3.36;75.14
35307;BME280;21420;52.196;21.416;2024-01-27T05:34:03;100270.58;;;3.36;75.18
35307;BME280;21420;52.196;21.416;2024-01-27T05:36:31;100272.38;;;3.35;75.19
35307;BME280;21420;52.196;21.416;2024-01-27T05:38:58;100268.59;;;3.35;75.24
35307;BME280;21420;52.196;21.416;2024-01-27T05:41:26;100268.02;;;3.34;75.14
35307;BME280;21420;52.196;21.416;2024-01-27T05:43:56;100271.17;;;3.32;75.18
35307;BME280;21420;52.196;21.416;2024-01-27T05:46:24;100270.33;;;3.30;75.18
35307;BME280;21420;52.196;21.416;2024-01-27T05:48:52;100273.99;;;3.27;75.15
35307;BME280;21420;52.196;21.416;2024-01-27T05:51:28;100277.16;;;3.25;75.11
35307;BME280;21420;52.196;21.416;2024-01-27T05:53:54;100268.70;;;3.23;75.12
35307;BME280;21420;52.196;21.416;2024-01-27T05:56:21;100270.58;;;3.22;75.12
35307;BME280;21420;52.196;21.416;2024-01-27T05:58:48;100271.20;;;3.20;75.12
35307;BME280;21420;52.196;21.416;2024-01-27T06:01:17;100274.80;;;3.19;75.12
35307;BME280;21420;52.196;21.416;2024-01-27T06:03:44;100279.69;;;3.17;75.14
35307;BME280;21420;52.196;21.416;2024-01-27T06:06:11;100278.73;;;3.16;75.15
35307;BME280;21420;52.196;21.416;2024-01-27T06:08:38;100280.11;;;3.14;75.13
35307;BME280;21420;52.196;21.416;2024-01-27T06:11:05;100282.02;;;3.12;75.09
35307;BME280;21420;52.196;21.416;2024-01-27T06:13:35;100287.73;;;3.10;75.03
35307;BME280;21420;52.196;21.416;2024-01-27T06:16:08;100291.21;;;3.07;75.16
35307;BME280;21420;52.196;21.416;2024-01-27T06:18:38;100287.55;;;3.06;75.19
35307;BME280;21420;52.196;21.416;2024-01-27T06:21:05;100289.20;;;3.05;75.18
35307;BME280;21420;52.196;21.416;2024-01-27T06:23:32;100292.55;;;3.04;75.17
35307;BME280;21420;52.196;21.416;2024-01-27T06:26:03;100291.20;;;3.04;75.14
35307;BME280;21420;52.196;21.416;2024-01-27T06:28:30;100292.37;;;3.03;75.20
35307;BME280;21420;52.196;21.416;2024-01-27T06:30:57;100291.17;;;3.02;75.14
35307;BME280;21420;52.196;21.416;2024-01-27T06:33:24;100290.91;;;3.00;75.19
35307;BME280;21420;52.196;21.416;2024-01-27T06:35:51;100289.62;;;3.00;75.16
35307;BME280;21420;52.196;21.416;2024-01-27T06:38:18;100297.09;;;3.00;75.26
35307;BME280;21420;52.196;21.416;2024-01-27T06:40:44;100292.12;;;2.99;75.20
35307;BME280;21420;52.196;21.416;2024-01-27T06:43:12;100294.41;;;2.96;75.19
35307;BME280;21420;52.196;21.416;2024-01-27T06:45:39;100299.84;;;2.95;75.25
35307;BME280;21420;52.196;21.416;2024-01-27T06:48:07;100297.04;;;2.95;75.28
35307;BME280;21420;52.196;21.416;2024-01-27T06:50:34;100298.77;;;2.94;75.22
35307;BME280;21420;52.196;21.416;2024-01-27T06:53:01;100304.52;;;2.93;75.24
35307;BME280;21420;52.196;21.416;2024-01-27T06:55:28;100300.14;;;2.92;75.35
35307;BME280;21420;52.196;21.416;2024-01-27T06:57:55;100301.29;;;2.92;75.28
35307;BME280;21420;52.196;21.416;2024-01-27T07:00:22;100298.81;;;2.91;75.25
35307;BME280;21420;52.196;21.416;2024-01-27T07:02:49;100298.49;;;2.90;75.24
35307;BME280;21420;52.196;21.416;2024-01-27T07:05:16;100302.63;;;2.88;75.20
35307;BME280;21420;52.196;21.416;2024-01-27T07:07:42;100305.02;;;2.85;75.18
35307;BME280;21420;52.196;21.416;2024-01-27T07:10:09;100297.40;;;2.85;75.22
35307;BME280;21420;52.196;21.416;2024-01-27T07:12:36;100302.93;;;2.84;75.27
35307;BME280;21420;52.196;21.416;2024-01-27T07:15:03;100304.71;;;2.84;75.33
35307;BME280;21420;52.196;21.416;2024-01-27T07:17:30;100300.89;;;2.84;75.32
35307;BME280;21420;52.196;21.416;2024-01-27T07:19:57;100306.95;;;2.83;75.35
35307;BME280;21420;52.196;21.416;2024-01-27T07:22:24;100303.77;;;2.82;75.33
35307;BME280;21420;52.196;21.416;2024-01-27T07:24:51;100303.73;;;2.80;75.39
35307;BME280;21420;52.196;21.416;2024-01-27T07:27:18;100311.54;;;2.79;75.38
35307;BME280;21420;52.196;21.416;2024-01-27T07:29:45;100311.73;;;2.80;75.36
35307;BME280;21420;52.196;21.416;2024-01-27T07:32:12;100313.70;;;2.78;75.36
35307;BME280;21420;52.196;21.416;2024-01-27T07:34:43;100311.61;;;2.76;75.45
35307;BME280;21420;52.196;21.416;2024-01-27T07:37:10;100315.15;;;2.74;75.40
35307;BME280;21420;52.196;21.416;2024-01-27T07:39:37;100306.05;;;2.74;75.44
35307;BME280;21420;52.196;21.416;2024-01-27T07:42:04;100312.81;;;2.74;75.45
35307;BME280;21420;52.196;21.416;2024-01-27T07:44:31;100312.35;;;2.72;75.34
35307;BME280;21420;52.196;21.416;2024-01-27T07:46:58;100318.05;;;2.71;75.34
35307;BME280;21420;52.196;21.416;2024-01-27T07:49:24;100319.88;;;2.71;75.36
35307;BME280;21420;52.196;21.416;2024-01-27T07:51:51;100326.33;;;2.70;75.31
35307;BME280;21420;52.196;21.416;2024-01-27T07:54:18;100323.24;;;2.69;75.39
35307;BME280;21420;52.196;21.416;2024-01-27T07:56:45;100321.38;;;2.67;75.35
35307;BME280;21420;52.196;21.416;2024-01-27T07:59:12;100326.62;;;2.66;75.43
35307;BME280;21420;52.196;21.416;2024-01-27T08:01:41;100332.73;;;2.67;75.51
35307;BME280;21420;52.196;21.416;2024-01-27T08:04:08;100331.33;;;2.68;75.53
35307;BME280;21420;52.196;21.416;2024-01-27T08:06:46;100332.48;;;2.70;75.58
35307;BME280;21420;52.196;21.416;2024-01-27T08:09:14;100337.89;;;2.71;75.63
35307;BME280;21420;52.196;21.416;2024-01-27T08:11:41;100338.04;;;2.72;75.65
35307;BME280;21420;52.196;21.416;2024-01-27T08:14:08;100341.88;;;2.73;75.61
35307;BME280;21420;52.196;21.416;2024-01-27T08:16:35;100345.70;;;2.75;75.62
35307;BME280;21420;52.196;21.416;2024-01-27T08:19:02;100343.98;;;2.78;75.62
35307;BME280;21420;52.196;21.416;2024-01-27T08:21:29;100346.13;;;2.81;75.71
35307;BME280;21420;52.196;21.416;2024-01-27T08:23:55;100349.77;;;2.83;75.80
35307;BME280;21420;52.196;21.416;2024-01-27T08:26:22;100353.50;;;2.85;75.71
35307;BME280;21420;52.196;21.416;2024-01-27T08:28:49;100353.86;;;2.87;75.76
35307;BME280;21420;52.196;21.416;2024-01-27T08:31:16;100360.62;;;2.88;75.79
35307;BME280;21420;52.196;21.416;2024-01-27T08:33:42;100360.44;;;2.89;75.79
35307;BME280;21420;52.196;21.416;2024-01-27T08:36:13;100356.64;;;2.90;75.79
35307;BME280;21420;52.196;21.416;2024-01-27T08:38:40;100361.55;;;2.91;75.78
35307;BME280;21420;52.196;21.416;2024-01-27T08:41:07;100366.27;;;2.91;75.73
35307;BME280;21420;52.196;21.416;2024-01-27T08:43:34;100367.84;;;2.91;75.69
35307;BME280;21420;52.196;21.416;2024-01-27T08:46:01;100373.57;;;2.91;75.66
35307;BME280;21420;52.196;21.416;2024-01-27T08:48:27;100376.52;;;2.92;75.68
35307;BME280;21420;52.196;21.416;2024-01-27T08:50:54;100381.61;;;2.93;75.73
35307;BME280;21420;52.196;21.416;2024-01-27T08:53:21;100380.25;;;2.93;75.71
35307;BME280;21420;52.196;21.416;2024-01-27T08:55:48;100381.88;;;2.93;75.78
35307;BME280;21420;52.196;21.416;2024-01-27T08:58:14;100383.20;;;2.96;75.75
35307;BME280;21420;52.196;21.416;2024-01-27T09:00:41;100383.29;;;2.98;75.67
35307;BME280;21420;52.196;21.416;2024-01-27T09:03:08;100389.35;;;3.03;75.73
35307;BME280;21420;52.196;21.416;2024-01-27T09:05:35;100383.27;;;3.08;75.72
35307;BME280;21420;52.196;21.416;2024-01-27T09:08:02;100385.27;;;3.12;75.84
35307;BME280;21420;52.196;21.416;2024-01-27T09:10:28;100389.45;;;3.16;75.79
35307;BME280;21420;52.196;21.416;2024-01-27T09:12:55;100396.35;;;3.18;75.78
35307;BME280;21420;52.196;21.416;2024-01-27T09:15:24;100401.77;;;3.19;75.72
35307;BME280;21420;52.196;21.416;2024-01-27T09:17:51;100408.48;;;3.18;75.78
35307;BME280;21420;52.196;21.416;2024-01-27T09:20:19;100409.23;;;3.15;75.71
35307;BME280;21420;52.196;21.416;2024-01-27T09:22:46;100412.22;;;3.12;75.76
35307;BME280;21420;52.196;21.416;2024-01-27T09:25:14;100412.83;;;3.12;75.79
35307;BME280;21420;52.196;21.416;2024-01-27T09:27:41;100411.85;;;3.11;75.66
35307;BME280;21420;52.196;21.416;2024-01-27T09:30:09;100412.34;;;3.11;75.57
35307;BME280;21420;52.196;21.416;2024-01-27T09:32:36;100414.20;;;3.15;75.85
35307;BME280;21420;52.196;21.416;2024-01-27T09:35:04;100420.29;;;3.18;75.87
35307;BME280;21420;52.196;21.416;2024-01-27T09:37:30;100425.19;;;3.20;75.90
35307;BME280;21420;52.196;21.416;2024-01-27T09:39:58;100428.05;;;3.22;75.84
35307;BME280;21420;52.196;21.416;2024-01-27T09:42:27;100429.03;;;3.20;75.78
35307;BME280;21420;52.196;21.416;2024-01-27T09:44:56;100433.23;;;3.17;75.70
35307;BME280;21420;52.196;21.416;2024-01-27T09:47:24;100440.68;;;3.14;75.80
35307;BME280;21420;52.196;21.416;2024-01-27T09:49:51;100438.85;;;3.13;75.87
35307;BME280;21420;52.196;21.416;2024-01-27T09:52:18;100443.55;;;3.11;75.78
35307;BME280;21420;52.196;21.416;2024-01-27T09:54:45;100445.09;;;3.11;75.80
35307;BME280;21420;52.196;21.416;2024-01-27T09:57:13;100441.63;;;3.10;75.90
35307;BME280;21420;52.196;21.416;2024-01-27T09:59:41;100439.23;;;3.11;75.89
35307;BME280;21420;52.196;21.416;2024-01-27T10:02:11;100445.46;;;3.10;75.89
35307;BME280;21420;52.196;21.416;2024-01-27T10:04:40;100445.72;;;3.12;75.96
35307;BME280;21420;52.196;21.416;2024-01-27T10:07:07;100447.77;;;3.11;75.94
35307;BME280;21420;52.196;21.416;2024-01-27T10:09:34;100455.84;;;3.12;75.96
35307;BME280;21420;52.196;21.416;2024-01-27T10:12:03;100456.40;;;3.15;76.12
35307;BME280;21420;52.196;21.416;2024-01-27T10:14:40;100463.13;;;3.20;76.07
35307;BME280;21420;52.196;21.416;2024-01-27T10:17:20;100462.30;;;3.24;76.09
35307;BME280;21420;52.196;21.416;2024-01-27T10:19:48;100466.25;;;3.28;76.16
35307;BME280;21420;52.196;21.416;2024-01-27T10:22:26;100471.55;;;3.34;76.20
35307;BME280;21420;52.196;21.416;2024-01-27T10:24:53;100478.91;;;3.40;76.23
35307;BME280;21420;52.196;21.416;2024-01-27T10:27:20;100474.95;;;3.48;76.31
35307;BME280;21420;52.196;21.416;2024-01-27T10:29:56;100476.00;;;3.57;76.38
35307;BME280;21420;52.196;21.416;2024-01-27T10:32:23;100479.52;;;3.66;76.35
35307;BME280;21420;52.196;21.416;2024-01-27T10:35:06;100483.80;;;3.72;76.43
35307;BME280;21420;52.196;21.416;2024-01-27T10:37:36;100487.73;;;3.78;76.36
35307;BME280;21420;52.196;21.416;2024-01-27T10:40:07;100490.83;;;3.84;76.35
35307;BME280;21420;52.196;21.416;2024-01-27T10:42:39;100493.48;;;3.88;76.40
35307;BME280;21420;52.196;21.416;2024-01-27T10:45:06;100496.85;;;3.92;76.38
35307;BME280;21420;52.196;21.416;2024-01-27T10:47:33;100496.04;;;3.97;76.43
35307;BME280;21420;52.196;21.416;2024-01-27T10:50:00;100496.73;;;4.03;76.41
35307;BME280;21420;52.196;21.416;2024-01-27T10:52:32;100505.80;;;4.06;76.31
35307;BME280;21420;52.196;21.416;2024-01-27T10:55:01;100508.52;;;4.10;76.29
35307;BME280;21420;52.196;21.416;2024-01-27T10:57:30;100506.52;;;4.12;76.30
35307;BME280;21420;52.196;21.416;2024-01-27T10:59:57;100509.08;;;4.17;76.35
35307;BME280;21420;52.196;21.416;2024-01-27T11:02:24;100509.38;;;4.23;76.35
35307;BME280;21420;52.196;21.416;2024-01-27T11:04:51;100513.31;;;4.26;76.35
35307;BME280;21420;52.196;21.416;2024-01-27T11:07:21;100514.35;;;4.25;76.18
35307;BME280;21420;52.196;21.416;2024-01-27T11:09:50;100517.34;;;4.24;76.20
35307;BME280;21420;52.196;21.416;2024-01-27T11:12:21;100522.71;;;4.24;76.22
35307;BME280;21420;52.196;21.416;2024-01-27T11:14:50;100526.39;;;4.24;76.21
35307;BME280;21420;52.196;21.416;2024-01-27T11:17:21;100529.54;;;4.25;76.13
35307;BME280;21420;52.196;21.416;2024-01-27T11:19:47;100533.88;;;4.25;76.26
35307;BME280;21420;52.196;21.416;2024-01-27T11:22:26;100543.16;;;4.27;76.31
35307;BME280;21420;52.196;21.416;2024-01-27T11:27:43;100550.29;;;4.34;76.25
35307;BME280;21420;52.196;21.416;2024-01-27T11:30:27;100559.44;;;4.36;76.26
35307;BME280;21420;52.196;21.416;2024-01-27T11:32:56;100562.14;;;4.41;76.36
35307;BME280;21420;52.196;21.416;2024-01-27T11:35:26;100562.59;;;4.44;76.27
35307;BME280;21420;52.196;21.416;2024-01-27T11:37:54;100562.84;;;4.47;76.25
35307;BME280;21420;52.196;21.416;2024-01-27T11:40:21;100566.54;;;4.45;76.30
35307;BME280;21420;52.196;21.416;2024-01-27T11:42:55;100570.48;;;4.42;76.18
35307;BME280;21420;52.196;21.416;2024-01-27T11:45:23;100575.69;;;4.42;76.15
35307;BME280;21420;52.196;21.416;2024-01-27T11:47:50;100580.34;;;4.42;76.16
35307;BME280;21420;52.196;21.416;2024-01-27T11:50:18;100588.36;;;4.39;76.15
35307;BME280;21420;52.196;21.416;2024-01-27T11:52:45;100597.98;;;4.36;76.08
35307;BME280;21420;52.196;21.416;2024-01-27T11:55:12;100597.68;;;4.34;76.15
35307;BME280;21420;52.196;21.416;2024-01-27T11:57:42;100608.67;;;4.31;76.05
35307;BME280;21420;52.196;21.416;2024-01-27T12:00:09;100611.32;;;4.27;75.97
35307;BME280;21420;52.196;21.416;2024-01-27T12:02:40;100610.68;;;4.26;76.09
35307;BME280;21420;52.196;21.416;2024-01-27T12:05:08;100617.07;;;4.26;76.12
35307;BME280;21420;52.196;21.416;2024-01-27T12:07:35;100622.81;;;4.27;76.15
35307;BME280;21420;52.196;21.416;2024-01-27T12:10:03;100624.89;;;4.26;76.16
35307;BME280;21420;52.196;21.416;2024-01-27T12:12:30;100633.63;;;4.25;76.04
35307;BME280;21420;52.196;21.416;2024-01-27T12:14:56;100634.16;;;4.25;76.14
35307;BME280;21420;52.196;21.416;2024-01-27T12:17:25;100640.27;;;4.23;76.09
35307;BME280;21420;52.196;21.416;2024-01-27T12:19:52;100648.11;;;4.20;75.89
35307;BME280;21420;52.196;21.416;2024-01-27T12:24:48;100650.64;;;4.10;76.03
35307;BME280;21420;52.196;21.416;2024-01-27T12:27:16;100656.88;;;4.04;76.00
35307;BME280;21420;52.196;21.416;2024-01-27T12:29:43;100664.70;;;4.02;76.04
35307;BME280;21420;52.196;21.416;2024-01-27T12:32:10;100671.42;;;4.00;76.02
35307;BME280;21420;52.196;21.416;2024-01-27T12:34:41;100676.52;;;4.00;76.03
35307;BME280;21420;52.196;21.416;2024-01-27T12:37:11;100681.52;;;3.99;76.07
35307;BME280;21420;52.196;21.416;2024-01-27T12:39:42;100686.89;;;3.99;76.00
35307;BME280;21420;52.196;21.416;2024-01-27T12:42:11;100691.16;;;3.99;76.01
35307;BME280;21420;52.196;21.416;2024-01-27T12:44:41;100699.10;;;3.96;75.99
35307;BME280;21420;52.196;21.416;2024-01-27T12:47:07;100705.92;;;3.91;75.95
35307;BME280;21420;52.196;21.416;2024-01-27T12:49:36;100710.65;;;3.90;75.95
35307;BME280;21420;52.196;21.416;2024-01-27T12:52:03;100714.60;;;3.89;76.03
35307;BME280;21420;52.196;21.416;2024-01-27T12:54:30;100725.84;;;3.87;76.01
35307;BME280;21420;52.196;21.416;2024-01-27T12:56:57;100729.10;;;3.85;76.09